createdAt,value
2022-10-17T00:00:56.696Z,47.31
2022-10-17T00:03:23.554Z,46.91
2022-10-17T00:05:51.095Z,46.49
2022-10-17T00:08:18.611Z,46.35
2022-10-17T00:10:45.931Z,46.59
2022-10-17T00:13:13.062Z,46.96
2022-10-17T00:15:44.559Z,47.12
2022-10-17T00:18:11.439Z,46.98
2022-10-17T00:20:38.291Z,47.58
2022-10-17T00:23:05.215Z,47.35
2022-10-17T00:25:32.150Z,47.79
2022-10-17T00:27:59.226Z,47.98
2022-10-17T00:30:26.118Z,48.01
2022-10-17T00:32:53.067Z,47.71
2022-10-17T00:35:20.110Z,48.42
2022-10-17T00:37:48.410Z,48.90
2022-10-17T00:40:15.377Z,48.62
2022-10-17T00:42:42.216Z,48.62
2022-10-17T00:45:21.294Z,48.11
2022-10-17T00:48:04.059Z,48.39
2022-10-17T00:50:32.124Z,48.04
2022-10-17T00:53:02.808Z,48.74
2022-10-17T00:55:33.571Z,48.07
2022-10-17T00:58:04.085Z,48.25
2022-10-17T01:00:31.245Z,48.49
2022-10-17T01:02:58.527Z,48.04
2022-10-17T01:05:25.821Z,48.10
2022-10-17T01:07:54.287Z,49.03
2022-10-17T01:13:13.828Z,48.07
2022-10-17T01:15:50.462Z,47.92
2022-10-17T01:18:26.324Z,47.35
2022-10-17T01:21:06.602Z,47.67
2022-10-17T01:23:36.327Z,47.38
2022-10-17T01:26:06.346Z,47.57
2022-10-17T01:29:15.196Z,47.35
2022-10-17T01:32:03.088Z,47.02
2022-10-17T01:34:47.040Z,46.98
2022-10-17T01:37:36.111Z,46.56
2022-10-17T01:40:28.291Z,46.73
2022-10-17T01:43:28.271Z,46.71
2022-10-17T01:46:02.882Z,46.82
2022-10-17T01:48:37.081Z,46.92
2022-10-17T01:51:13.305Z,46.79
2022-10-17T01:53:49.312Z,46.39
2022-10-17T01:56:18.558Z,46.74
2022-10-17T01:58:57.444Z,46.87
2022-10-17T02:01:26.981Z,46.87
2022-10-17T02:03:56.589Z,46.73
2022-10-17T02:06:23.601Z,47.20
2022-10-17T02:08:51.461Z,46.89
2022-10-17T02:11:23.103Z,47.08
2022-10-17T02:14:23.939Z,47.57
2022-10-17T02:17:14.204Z,47.26
2022-10-17T02:20:06.494Z,47.01
2022-10-17T02:22:52.031Z,47.39
2022-10-17T02:25:28.184Z,47.21
2022-10-17T02:28:19.733Z,46.91
2022-10-17T02:30:46.639Z,46.84
2022-10-17T02:33:42.061Z,46.70
2022-10-17T02:36:15.351Z,46.64
2022-10-17T02:38:45.697Z,46.46
2022-10-17T02:41:18.139Z,46.89
2022-10-17T02:43:49.042Z,46.36
2022-10-17T02:46:23.184Z,46.94
2022-10-17T02:49:16.698Z,46.86
2022-10-17T02:51:56.279Z,47.11
2022-10-17T02:54:29.489Z,47.81
2022-10-17T02:57:25.522Z,47.58
2022-10-17T02:59:53.130Z,47.95
2022-10-17T03:02:20.150Z,47.92
2022-10-17T03:04:47.440Z,48.30
2022-10-17T03:07:15.972Z,47.87
2022-10-17T03:09:43.814Z,48.71
2022-10-17T03:12:10.630Z,49.08
2022-10-17T03:14:37.633Z,49.11
2022-10-17T03:17:04.705Z,48.95
2022-10-17T03:19:32.224Z,49.21
2022-10-17T03:21:59.112Z,49.28
2022-10-17T03:24:26.017Z,48.89
2022-10-17T03:26:53.330Z,49.69
2022-10-17T03:29:20.316Z,48.82
2022-10-17T03:31:47.557Z,49.15
2022-10-17T03:34:16.921Z,49.21
2022-10-17T03:36:43.847Z,48.77
2022-10-17T03:39:11.028Z,49.41
2022-10-17T03:41:38.185Z,49.82
2022-10-17T03:44:05.461Z,50.11
2022-10-17T03:46:33.694Z,49.59
2022-10-17T03:49:01.269Z,49.67
2022-10-17T03:51:28.435Z,50.00
2022-10-17T03:54:02.169Z,50.13
2022-10-17T03:56:29.211Z,50.37
2022-10-17T03:59:05.310Z,50.55
2022-10-17T04:01:35.319Z,50.57
2022-10-17T04:04:02.239Z,49.95
2022-10-17T04:06:32.615Z,50.23
2022-10-17T04:09:00.560Z,50.23
2022-10-17T04:11:34.892Z,50.22
2022-10-17T04:14:03.384Z,50.05
2022-10-17T04:16:30.545Z,50.32
2022-10-17T04:19:01.600Z,50.13
2022-10-17T04:21:33.887Z,52.19
2022-10-17T04:24:06.556Z,53.73
2022-10-17T04:26:54.905Z,54.19
2022-10-17T04:29:25.496Z,53.19
2022-10-17T04:31:56.471Z,53.21
2022-10-17T04:34:42.551Z,53.36
2022-10-17T04:37:09.445Z,51.57
2022-10-17T04:39:37.189Z,48.99
2022-10-17T04:42:04.130Z,47.32
2022-10-17T04:44:31.592Z,48.00
2022-10-17T04:46:58.906Z,48.02
2022-10-17T04:49:26.597Z,46.93
2022-10-17T04:51:57.989Z,47.03
2022-10-17T04:54:33.367Z,48.06
2022-10-17T04:57:07.122Z,48.38
2022-10-17T04:59:34.380Z,48.12
2022-10-17T05:02:24.211Z,48.54
2022-10-17T05:04:51.965Z,48.44
2022-10-17T05:07:20.476Z,48.93
2022-10-17T05:09:58.969Z,48.85
2022-10-17T05:12:26.860Z,48.57
2022-10-17T05:14:54.534Z,48.87
2022-10-17T05:17:25.434Z,49.04
2022-10-17T05:19:52.395Z,49.54
2022-10-17T05:22:19.362Z,49.45
2022-10-17T05:24:46.898Z,49.28
2022-10-17T05:27:14.051Z,49.82
2022-10-17T05:29:41.068Z,49.89
2022-10-17T05:32:20.355Z,50.13
2022-10-17T05:34:48.202Z,50.10
2022-10-17T05:37:15.485Z,49.82
2022-10-17T05:39:50.673Z,50.97
2022-10-17T05:42:19.645Z,50.75
2022-10-17T05:44:47.619Z,50.38
2022-10-17T05:47:17.479Z,49.96
2022-10-17T05:49:48.566Z,49.71
2022-10-17T05:52:20.530Z,49.60
2022-10-17T05:55:07.722Z,49.68
2022-10-17T05:57:34.717Z,50.06
2022-10-17T06:00:05.185Z,49.76
2022-10-17T06:02:41.299Z,49.19
2022-10-17T06:05:09.771Z,49.20
2022-10-17T06:07:37.150Z,49.19
2022-10-17T06:10:06.461Z,49.93
2022-10-17T06:12:33.478Z,50.65
2022-10-17T06:15:00.498Z,49.89
2022-10-17T06:17:28.270Z,49.76
2022-10-17T06:19:55.232Z,50.24
2022-10-17T06:22:23.967Z,48.69
2022-10-17T06:24:52.654Z,47.95
2022-10-17T06:27:20.477Z,47.51
2022-10-17T06:29:48.358Z,45.88
2022-10-17T06:32:15.459Z,42.42
2022-10-17T06:34:45.911Z,39.75
2022-10-17T06:37:12.948Z,40.98
2022-10-17T06:39:41.469Z,44.78
2022-10-17T06:42:13.026Z,47.17
2022-10-17T06:44:49.453Z,46.39
2022-10-17T06:47:37.375Z,38.97
2022-10-17T06:50:15.955Z,34.90
2022-10-17T06:52:51.870Z,34.25
2022-10-17T06:55:38.935Z,32.20
2022-10-17T06:58:17.260Z,29.61
2022-10-17T07:01:22.878Z,28.53
2022-10-17T07:03:56.880Z,28.27
2022-10-17T07:06:24.843Z,31.92
2022-10-17T07:08:55.790Z,32.21
2022-10-17T07:11:23.383Z,31.48
2022-10-17T07:13:52.573Z,29.73
2022-10-17T07:16:21.425Z,30.40
2022-10-17T07:18:54.378Z,30.51
2022-10-17T07:21:21.739Z,30.25
2022-10-17T07:23:48.805Z,34.63
2022-10-17T07:26:17.943Z,34.93
2022-10-17T07:28:46.713Z,31.55
2022-10-17T07:31:45.621Z,29.30
2022-10-17T07:34:12.972Z,32.19
2022-10-17T07:36:40.601Z,28.63
2022-10-17T07:39:08.509Z,27.72
2022-10-17T07:41:37.877Z,28.41
2022-10-17T07:44:05.111Z,27.79
2022-10-17T07:46:36.750Z,26.32
2022-10-17T07:49:03.781Z,25.39
2022-10-17T07:51:30.705Z,24.82
2022-10-17T07:53:57.844Z,27.55
2022-10-17T07:56:24.950Z,26.18
2022-10-17T07:58:53.207Z,23.90
2022-10-17T08:01:20.214Z,26.04
2022-10-17T08:03:51.088Z,23.64
2022-10-17T08:06:18.394Z,24.68
2022-10-17T08:08:45.475Z,29.31
2022-10-17T08:11:14.643Z,32.74
2022-10-17T08:13:42.462Z,30.31
2022-10-17T08:16:12.767Z,29.09
2022-10-17T08:18:41.371Z,28.46
2022-10-17T08:21:10.158Z,28.84
2022-10-17T08:23:37.848Z,27.89
2022-10-17T08:26:08.282Z,26.95
2022-10-17T08:28:37.015Z,27.97
2022-10-17T08:31:09.578Z,27.21
2022-10-17T08:33:36.989Z,25.35
2022-10-17T08:36:05.549Z,24.88
2022-10-17T08:38:35.678Z,26.80
2022-10-17T08:41:31.793Z,28.96
2022-10-17T08:44:32.564Z,29.57
2022-10-17T08:47:04.116Z,31.19
2022-10-17T08:49:52.587Z,32.50
2022-10-17T08:52:29.947Z,30.39
2022-10-17T08:54:56.987Z,28.15
2022-10-17T08:57:23.853Z,28.38
2022-10-17T08:59:53.558Z,30.26
2022-10-17T09:02:38.809Z,30.57
2022-10-17T09:05:24.022Z,30.49
2022-10-17T09:08:23.456Z,29.19
2022-10-17T09:10:56.309Z,29.90
2022-10-17T09:14:01.915Z,26.81
2022-10-17T09:16:34.631Z,27.67
2022-10-17T09:19:11.139Z,26.34
2022-10-17T09:21:46.911Z,28.41
2022-10-17T09:24:20.734Z,30.76
2022-10-17T09:26:47.690Z,32.99
2022-10-17T09:29:23.549Z,30.37
2022-10-17T09:31:59.460Z,31.25
2022-10-17T09:34:28.635Z,34.01
2022-10-17T09:36:58.680Z,31.90
2022-10-17T09:39:27.008Z,32.57
2022-10-17T09:41:59.178Z,35.11
2022-10-17T09:44:39.639Z,30.77
2022-10-17T09:47:31.411Z,28.94
2022-10-17T09:49:58.278Z,29.43
2022-10-17T09:52:33.891Z,28.01
2022-10-17T09:55:34.146Z,25.70
2022-10-17T09:58:03.409Z,29.48
2022-10-17T10:00:35.342Z,30.38
2022-10-17T10:03:14.520Z,33.53
2022-10-17T10:05:42.525Z,32.93
2022-10-17T10:08:17.483Z,34.34
2022-10-17T10:10:45.241Z,33.58
2022-10-17T10:13:15.037Z,31.24
2022-10-17T10:15:44.167Z,30.95
2022-10-17T10:18:26.490Z,29.02
2022-10-17T10:21:31.545Z,31.99
2022-10-17T10:24:10.578Z,29.72
2022-10-17T10:26:42.853Z,31.20
2022-10-17T10:29:40.144Z,30.68
2022-10-17T10:35:03.733Z,28.60
2022-10-17T10:37:43.629Z,29.92
2022-10-17T10:40:19.617Z,30.30
2022-10-17T10:42:50.365Z,27.98
2022-10-17T10:45:43.255Z,29.50
2022-10-17T10:48:34.385Z,30.20
2022-10-17T10:51:11.676Z,32.85
2022-10-17T10:53:48.676Z,29.61
2022-10-17T10:56:24.280Z,28.05
2022-10-17T10:59:04.834Z,28.51
2022-10-17T11:01:41.471Z,29.06
2022-10-17T11:04:29.476Z,30.67
2022-10-17T11:07:22.625Z,30.38
2022-10-17T11:10:39.449Z,28.91
2022-10-17T11:13:13.999Z,28.91
2022-10-17T11:15:47.362Z,26.96
2022-10-17T11:18:49.375Z,27.50
2022-10-17T11:21:22.718Z,27.76
2022-10-17T11:24:12.512Z,29.63
2022-10-17T11:26:46.573Z,29.51
2022-10-17T11:29:13.910Z,28.99
2022-10-17T11:31:50.572Z,29.20
2022-10-17T11:34:25.135Z,28.84
2022-10-17T11:36:54.680Z,30.18
2022-10-17T11:39:42.194Z,29.61
2022-10-17T11:42:18.436Z,31.08
2022-10-17T11:44:45.682Z,30.12
2022-10-17T11:47:47.082Z,27.58
2022-10-17T11:53:15.088Z,25.79
2022-10-17T11:55:43.671Z,28.24
2022-10-17T11:58:13.114Z,30.09
2022-10-17T12:01:08.331Z,32.22
2022-10-17T12:03:59.940Z,29.79
2022-10-17T12:06:54.486Z,29.14
2022-10-17T12:09:46.243Z,27.05
2022-10-17T12:12:26.220Z,27.62
2022-10-17T12:14:53.701Z,29.23
2022-10-17T12:17:39.033Z,29.99
2022-10-17T12:20:21.548Z,30.67
2022-10-17T12:22:54.100Z,32.04
2022-10-17T12:25:30.006Z,32.63
2022-10-17T12:28:32.464Z,31.23
2022-10-17T12:30:59.510Z,31.51
2022-10-17T12:33:34.062Z,30.57
2022-10-17T12:36:19.048Z,28.15
2022-10-17T12:38:49.947Z,29.54
2022-10-17T12:41:37.394Z,27.84
2022-10-17T12:44:13.385Z,23.58
2022-10-17T12:46:51.308Z,24.55
2022-10-17T12:49:21.453Z,27.62
2022-10-17T12:52:25.522Z,28.16
2022-10-17T12:55:11.643Z,29.75
2022-10-17T12:58:03.681Z,26.79
2022-10-17T13:01:22.404Z,25.58
2022-10-17T13:03:46.891Z,26.73
2022-10-17T13:06:40.405Z,27.14
2022-10-17T13:09:25.031Z,26.96
2022-10-17T13:11:54.009Z,30.34
2022-10-17T13:14:22.967Z,32.72
2022-10-17T13:16:56.171Z,34.93
2022-10-17T13:19:51.523Z,31.41
2022-10-17T13:22:20.407Z,29.99
2022-10-17T13:24:48.735Z,30.98
2022-10-17T13:27:23.272Z,30.26
2022-10-17T13:29:50.080Z,28.71
2022-10-17T13:32:17.028Z,30.82
2022-10-17T13:34:43.995Z,31.50
2022-10-17T13:37:14.837Z,32.18
2022-10-17T13:39:55.379Z,35.15
2022-10-17T13:42:27.967Z,36.89
2022-10-17T13:44:56.239Z,35.32
2022-10-17T13:47:27.367Z,34.27
2022-10-17T13:49:55.623Z,34.04
2022-10-17T13:52:27.343Z,33.31
2022-10-17T13:54:55.045Z,33.72
2022-10-17T13:57:24.059Z,35.26
2022-10-17T13:59:55.223Z,34.23
2022-10-17T14:02:28.162Z,34.26
2022-10-17T14:05:17.607Z,34.01
2022-10-17T14:08:15.253Z,35.87
2022-10-17T14:10:44.814Z,36.74
2022-10-17T14:13:23.984Z,38.73
2022-10-17T14:15:52.938Z,40.42
2022-10-17T14:18:34.930Z,39.97
2022-10-17T14:23:53.327Z,40.71
2022-10-17T14:26:24.130Z,41.57
2022-10-17T14:29:07.058Z,40.18
2022-10-17T14:31:36.023Z,40.37
2022-10-17T14:34:05.427Z,42.42
2022-10-17T14:36:36.176Z,42.97
2022-10-17T14:39:07.034Z,43.89
2022-10-17T14:41:43.599Z,44.12
2022-10-17T14:44:22.290Z,45.69
2022-10-17T14:46:54.153Z,45.11
2022-10-17T14:49:37.330Z,44.60
2022-10-17T14:52:18.648Z,45.19
2022-10-17T14:54:48.360Z,47.27
2022-10-17T14:57:18.613Z,48.58
2022-10-17T14:59:54.560Z,48.26
2022-10-17T15:02:22.380Z,49.21
2022-10-17T15:04:49.256Z,49.11
2022-10-17T15:07:17.760Z,50.67
2022-10-17T15:09:47.235Z,51.38
2022-10-17T15:12:17.191Z,51.02
2022-10-17T15:14:44.835Z,50.84
2022-10-17T15:17:19.036Z,51.97
2022-10-17T15:19:46.075Z,52.10
2022-10-17T15:22:13.103Z,51.46
2022-10-17T15:24:40.093Z,53.68
2022-10-17T15:27:19.110Z,54.27
2022-10-17T15:29:46.532Z,54.73
2022-10-17T15:32:14.094Z,55.17
2022-10-17T15:34:41.528Z,54.44
2022-10-17T15:37:17.678Z,55.30
2022-10-17T15:39:45.915Z,55.63
2022-10-17T15:42:12.915Z,55.62
2022-10-17T15:44:43.907Z,55.62
2022-10-17T15:47:34.961Z,55.96
2022-10-17T15:50:02.492Z,55.90
2022-10-17T15:52:29.758Z,55.68
2022-10-17T15:54:58.500Z,55.99
2022-10-17T15:57:31.861Z,57.04
2022-10-17T16:00:00.255Z,57.06
2022-10-17T16:02:27.850Z,56.82
2022-10-17T16:04:54.824Z,57.38
2022-10-17T16:07:22.003Z,59.07
2022-10-17T16:09:48.958Z,59.07
2022-10-17T16:12:19.193Z,58.00
2022-10-17T16:14:46.067Z,58.85
2022-10-17T16:17:16.934Z,58.42
2022-10-17T16:19:44.256Z,60.02
2022-10-17T16:22:24.869Z,60.40
2022-10-17T16:24:58.354Z,59.73
2022-10-17T16:27:26.490Z,60.74
2022-10-17T16:29:53.426Z,61.56
2022-10-17T16:32:20.306Z,62.40
2022-10-17T16:34:47.172Z,62.33
2022-10-17T16:37:16.626Z,62.50
2022-10-17T16:39:43.531Z,62.84
2022-10-17T16:42:10.370Z,64.43
2022-10-17T16:44:37.299Z,65.01
2022-10-17T16:47:04.206Z,64.29
2022-10-17T16:49:31.026Z,63.88
2022-10-17T16:51:58.127Z,64.96
2022-10-17T16:54:25.029Z,64.17
2022-10-17T16:56:51.960Z,64.51
2022-10-17T16:59:18.820Z,64.31
2022-10-17T17:01:45.701Z,65.07
2022-10-17T17:04:12.595Z,65.85
2022-10-17T17:06:39.691Z,63.63
2022-10-17T17:09:08.773Z,62.89
2022-10-17T17:11:37.530Z,61.78
2022-10-17T17:14:05.890Z,61.87
2022-10-17T17:16:35.211Z,62.41
2022-10-17T17:19:07.694Z,62.13
2022-10-17T17:21:35.143Z,63.06
2022-10-17T17:24:03.928Z,62.93
2022-10-17T17:26:36.180Z,63.02
2022-10-17T17:29:04.895Z,61.86
2022-10-17T17:31:34.190Z,63.44
2022-10-17T17:34:02.226Z,65.31
2022-10-17T17:36:31.985Z,64.25
2022-10-17T17:39:01.156Z,62.61
2022-10-17T17:41:28.866Z,63.49
2022-10-17T17:43:56.299Z,63.90
2022-10-17T17:46:24.812Z,64.88
2022-10-17T17:48:52.857Z,62.27
2022-10-17T17:51:26.943Z,60.72
2022-10-17T17:53:56.709Z,62.32
2022-10-17T17:56:29.695Z,63.13
2022-10-17T17:59:02.266Z,63.67
2022-10-17T18:01:38.846Z,64.61
2022-10-17T18:04:08.923Z,64.20
2022-10-17T18:06:37.514Z,65.48
2022-10-17T18:09:05.968Z,64.84
2022-10-17T18:11:33.377Z,64.73
2022-10-17T18:14:04.056Z,66.63
2022-10-17T18:16:32.460Z,65.26
2022-10-17T18:19:04.137Z,64.98
2022-10-17T18:21:34.661Z,65.07
2022-10-17T18:24:02.091Z,67.21
2022-10-17T18:26:28.961Z,65.60
2022-10-17T18:28:56.676Z,64.80
2022-10-17T18:31:28.402Z,65.36
2022-10-17T18:33:58.015Z,65.62
2022-10-17T18:36:28.714Z,66.61
2022-10-17T18:38:56.616Z,65.89
2022-10-17T18:41:25.882Z,66.67
2022-10-17T18:43:54.515Z,67.50
2022-10-17T18:46:26.838Z,67.21
2022-10-17T18:48:54.203Z,65.76
2022-10-17T18:51:24.040Z,66.20
2022-10-17T18:53:53.282Z,67.66
2022-10-17T18:56:21.562Z,70.69
2022-10-17T18:58:48.518Z,71.49
2022-10-17T19:01:18.452Z,72.23
2022-10-17T19:03:49.875Z,72.30
2022-10-17T19:06:19.977Z,72.89
2022-10-17T19:08:47.746Z,72.45
2022-10-17T19:11:20.954Z,73.13
2022-10-17T19:13:48.662Z,74.28
2022-10-17T19:16:21.165Z,75.00
2022-10-17T19:18:56.525Z,75.25
2022-10-17T19:21:23.697Z,75.83
2022-10-17T19:23:52.995Z,75.67
2022-10-17T19:26:21.537Z,76.19
2022-10-17T19:28:48.569Z,76.81
2022-10-17T19:31:17.972Z,78.43
2022-10-17T19:33:45.359Z,78.65
2022-10-17T19:36:13.472Z,78.17
2022-10-17T19:38:40.372Z,78.15
2022-10-17T19:41:09.897Z,78.13
2022-10-17T19:43:37.965Z,78.58
2022-10-17T19:46:07.515Z,78.36
2022-10-17T19:48:39.373Z,77.79
2022-10-17T19:51:08.533Z,78.00
2022-10-17T19:53:35.658Z,78.16
2022-10-17T19:56:03.407Z,78.93
2022-10-17T19:58:30.931Z,78.10
2022-10-17T20:01:01.279Z,78.28
2022-10-17T20:03:29.390Z,78.03
2022-10-17T20:05:56.455Z,77.15
2022-10-17T20:08:23.584Z,77.99
2022-10-17T20:10:50.499Z,77.82
2022-10-17T20:13:17.473Z,77.40
2022-10-17T20:15:54.577Z,78.37
2022-10-17T20:18:21.771Z,78.21
2022-10-17T20:20:49.142Z,78.46
2022-10-17T20:23:16.160Z,79.57
2022-10-17T20:25:43.248Z,79.58
2022-10-17T20:28:10.417Z,79.51
2022-10-17T20:30:37.869Z,79.94
2022-10-17T20:33:04.848Z,80.66
2022-10-17T20:35:31.789Z,81.44
2022-10-17T20:37:58.732Z,81.42
2022-10-17T20:40:40.986Z,81.48
2022-10-17T20:43:10.023Z,82.03
2022-10-17T20:45:51.582Z,82.10
2022-10-17T20:48:19.217Z,82.64
2022-10-17T20:50:46.103Z,82.52
2022-10-17T20:56:05.780Z,82.32
2022-10-17T20:58:32.854Z,81.87
2022-10-17T21:01:05.471Z,81.63
2022-10-17T21:03:37.805Z,81.70
2022-10-17T21:06:09.134Z,83.03
2022-10-17T21:08:36.151Z,82.62
2022-10-17T21:11:14.553Z,82.46
2022-10-17T21:13:42.256Z,82.12
2022-10-17T21:16:11.806Z,81.96
2022-10-17T21:18:39.293Z,82.17
2022-10-17T21:21:16.723Z,81.66
2022-10-17T21:23:45.529Z,80.86
2022-10-17T21:26:13.018Z,80.86
2022-10-17T21:28:41.097Z,80.50
2022-10-17T21:31:16.907Z,80.26
2022-10-17T21:33:48.558Z,81.21
2022-10-17T21:36:16.995Z,82.51
2022-10-17T21:38:48.384Z,81.74
2022-10-17T21:41:17.370Z,82.30
2022-10-17T21:43:44.262Z,82.05
2022-10-17T21:46:18.910Z,80.77
2022-10-17T21:48:47.335Z,80.35
2022-10-17T21:51:16.578Z,80.33
2022-10-17T21:53:43.891Z,81.78
2022-10-17T21:56:14.274Z,83.13
2022-10-17T21:58:41.901Z,82.14
2022-10-17T22:01:16.364Z,83.53
2022-10-17T22:03:46.921Z,83.48
2022-10-17T22:09:05.874Z,84.52
2022-10-17T22:11:35.363Z,83.97
2022-10-17T22:14:05.125Z,84.36
2022-10-17T22:16:32.661Z,85.12
2022-10-17T22:19:04.830Z,85.13
2022-10-17T22:21:34.553Z,84.71
2022-10-17T22:24:04.470Z,84.68
2022-10-17T22:26:32.949Z,84.01
2022-10-17T22:29:00.402Z,83.85
2022-10-17T22:31:27.438Z,82.69
2022-10-17T22:33:54.368Z,77.35
2022-10-17T22:36:21.376Z,75.10
2022-10-17T22:38:48.557Z,75.88
2022-10-17T22:41:15.406Z,78.15
2022-10-17T22:43:42.313Z,78.48
2022-10-17T22:46:13.185Z,80.04
2022-10-17T22:48:40.403Z,82.47
2022-10-17T22:51:07.722Z,82.83
2022-10-17T22:53:35.355Z,82.38
2022-10-17T22:56:06.582Z,83.64
2022-10-17T22:58:34.818Z,83.84
2022-10-17T23:01:02.029Z,83.85
2022-10-17T23:03:30.862Z,84.28
2022-10-17T23:05:58.195Z,84.08
2022-10-17T23:08:26.109Z,83.81
2022-10-17T23:10:53.346Z,85.49
2022-10-17T23:13:21.490Z,86.25
2022-10-17T23:15:55.911Z,86.95
2022-10-17T23:18:24.530Z,87.17
2022-10-17T23:20:51.690Z,86.60
2022-10-17T23:23:19.545Z,87.33
2022-10-17T23:25:47.079Z,87.43
2022-10-17T23:28:14.061Z,87.79
2022-10-17T23:30:41.425Z,87.62
2022-10-17T23:33:10.695Z,86.76
2022-10-17T23:35:37.581Z,86.17
2022-10-17T23:38:04.719Z,86.29
2022-10-17T23:40:31.664Z,85.54
2022-10-17T23:42:58.586Z,86.69
2022-10-17T23:45:25.528Z,87.59
2022-10-17T23:47:52.406Z,87.51
2022-10-17T23:50:19.326Z,88.37
2022-10-17T23:52:46.257Z,88.58
2022-10-17T23:55:13.258Z,88.75
2022-10-17T23:57:40.138Z,88.61
